Ravenna, Ohio
Current Conditions -  °F | °C
As of 7:17 PM on Wednesday 22 Oct 2014 (Local Time) from KPOV Reporting Station
Overcast Overcast  
Wind Chill:   Ceiling: 3200
Heat Index:   Visibility: 10mi
Dew Point:   Wind: 3mph
Humidity: 76%   Direction: 320°NW
Pressure: 30.22"   Gusts: NA
Location:  41.16°N, 81.24°W
Report Text: KPOV 222317Z AUTO 32003KT 10SM OVC032 09/05 A3022 RMK AO2 T00860046
Loading
Personal Weather Stations






























Interactive Weather Map
Tropical Storm Tracking
New forecast layout! Learn more

10-Day Weather Forecast

Advertisements
Track Severe Weather on mobile